createdAt,value
2022-10-05T00:02:26.724Z,101329.31
2022-10-05T00:04:59.411Z,101329.09
2022-10-05T00:07:31.518Z,101336.63
2022-10-05T00:10:01.423Z,101341.03
2022-10-05T00:12:31.643Z,101334.69
2022-10-05T00:15:02.555Z,101346.25
2022-10-05T00:17:34.134Z,101338.56
2022-10-05T00:20:09.590Z,101324.06
2022-10-05T00:22:38.651Z,101323.34
2022-10-05T00:25:17.523Z,101319.31
2022-10-05T00:27:56.163Z,101316.53
2022-10-05T00:30:32.147Z,101319.47
2022-10-05T00:33:01.184Z,101310.91
2022-10-05T00:35:30.949Z,101315.81
2022-10-05T00:37:59.761Z,101312.38
2022-10-05T00:40:42.872Z,101306.25
2022-10-05T00:43:43.854Z,101305.06
2022-10-05T00:46:18.905Z,101301.41
2022-10-05T00:49:01.480Z,101300.94
2022-10-05T00:51:35.407Z,101285.28
2022-10-05T00:54:26.939Z,101287.09
2022-10-05T00:57:35.189Z,101266.28
2022-10-05T01:00:13.120Z,101271.44
2022-10-05T01:02:57.977Z,101263.94
2022-10-05T01:05:51.838Z,101282.31
2022-10-05T01:08:38.471Z,101269.22
2022-10-05T01:11:20.165Z,101275.22
2022-10-05T01:14:01.599Z,101274.88
2022-10-05T01:16:41.192Z,101287.31
2022-10-05T01:19:44.570Z,101272.03
2022-10-05T01:22:32.002Z,101263.47
2022-10-05T01:25:24.666Z,101264.97
2022-10-05T01:28:04.375Z,101269.84
2022-10-05T01:30:44.418Z,101266.16
2022-10-05T01:33:26.897Z,101261.13
2022-10-05T01:36:07.960Z,101253.19
2022-10-05T01:38:49.360Z,101269.84
2022-10-05T01:41:33.844Z,101264.47
2022-10-05T01:44:11.475Z,101265.53
2022-10-05T01:46:46.174Z,101268.00
2022-10-05T01:49:37.909Z,101257.22
2022-10-05T01:52:29.059Z,101257.72
2022-10-05T01:55:19.075Z,101239.47
2022-10-05T01:58:07.790Z,101234.69
2022-10-05T02:00:50.947Z,101239.47
2022-10-05T02:03:26.686Z,101227.25
2022-10-05T02:06:03.965Z,101228.47
2022-10-05T02:08:41.047Z,101228.59
2022-10-05T02:11:13.342Z,101220.50
2022-10-05T02:13:45.757Z,101217.34
2022-10-05T02:16:24.698Z,101224.56
2022-10-05T02:18:59.626Z,101222.22
2022-10-05T02:21:31.161Z,101219.06
2022-10-05T02:24:08.290Z,101224.56
2022-10-05T02:26:38.992Z,101223.34
2022-10-05T02:29:12.698Z,101224.91
2022-10-05T02:31:51.811Z,101219.50
2022-10-05T02:34:27.676Z,101231.41
2022-10-05T02:37:21.896Z,101217.41
2022-10-05T02:40:24.187Z,101223.44
2022-10-05T02:43:05.846Z,101226.44
2022-10-05T02:45:51.199Z,101221.69
2022-10-05T02:48:38.165Z,101230.59
2022-10-05T02:51:19.922Z,101231.69
2022-10-05T02:54:07.249Z,101226.94
2022-10-05T02:56:47.998Z,101219.97
2022-10-05T02:59:25.613Z,101219.06
2022-10-05T03:02:01.357Z,101221.06
2022-10-05T03:04:42.339Z,101216.75
2022-10-05T03:07:20.125Z,101206.38
2022-10-05T03:10:01.478Z,101203.81
2022-10-05T03:12:53.992Z,101197.31
2022-10-05T03:15:55.077Z,101208.59
2022-10-05T03:18:44.669Z,101200.88
2022-10-05T03:21:36.704Z,101195.94
2022-10-05T03:24:31.081Z,101189.31
2022-10-05T03:27:11.252Z,101185.50
2022-10-05T03:29:48.696Z,101185.25
2022-10-05T03:32:30.431Z,101179.16
2022-10-05T03:35:07.996Z,101168.38
2022-10-05T03:37:49.623Z,101157.72
2022-10-05T03:40:35.310Z,101156.13
2022-10-05T03:43:26.981Z,101151.88
2022-10-05T03:46:07.370Z,101162.06
2022-10-05T03:48:46.008Z,101161.47
2022-10-05T03:51:32.515Z,101171.03
2022-10-05T03:54:13.152Z,101162.31
2022-10-05T03:56:50.781Z,101163.19
2022-10-05T03:59:32.125Z,101153.16
2022-10-05T04:02:06.661Z,101135.81
2022-10-05T04:04:42.049Z,101149.66
2022-10-05T04:07:37.656Z,101146.72
2022-10-05T04:10:17.612Z,101153.56
2022-10-05T04:12:54.244Z,101151.50
2022-10-05T04:15:34.857Z,101154.41
2022-10-05T04:18:12.954Z,101150.38
2022-10-05T04:20:52.188Z,101152.09
2022-10-05T04:23:34.879Z,101157.25
2022-10-05T04:26:12.163Z,101161.44
2022-10-05T04:28:55.763Z,101172.19
2022-10-05T04:31:56.842Z,101167.16
2022-10-05T04:35:06.243Z,101163.34
2022-10-05T04:37:48.653Z,101167.00
2022-10-05T04:40:41.316Z,101163.13
2022-10-05T04:43:20.973Z,101157.34
2022-10-05T04:46:25.688Z,101155.28
2022-10-05T04:49:36.768Z,101151.88
2022-10-05T04:52:17.975Z,101143.66
2022-10-05T04:55:10.157Z,101157.22
2022-10-05T04:57:51.052Z,101149.03
2022-10-05T05:00:26.649Z,101151.84
2022-10-05T05:03:36.282Z,101149.50
2022-10-05T05:06:23.975Z,101149.38
2022-10-05T05:09:18.347Z,101141.19
2022-10-05T05:12:21.566Z,101150.34
2022-10-05T05:15:12.393Z,101146.34
2022-10-05T05:18:07.853Z,101153.41
2022-10-05T05:20:56.071Z,101153.66
2022-10-05T05:23:38.897Z,101152.53
2022-10-05T05:26:24.129Z,101150.88
2022-10-05T05:29:08.502Z,101150.59
2022-10-05T05:31:46.015Z,101148.88
2022-10-05T05:34:42.321Z,101147.16
2022-10-05T05:37:23.297Z,101149.56
2022-10-05T05:40:08.531Z,101148.38
2022-10-05T05:42:51.216Z,101132.22
2022-10-05T05:45:28.374Z,101137.09
2022-10-05T05:48:02.235Z,101135.25
2022-10-05T05:50:49.067Z,101131.69
2022-10-05T05:53:25.291Z,101138.56
2022-10-05T05:56:05.886Z,101136.22
2022-10-05T05:58:44.672Z,101144.47
2022-10-05T06:01:32.817Z,101124.00
2022-10-05T06:04:12.576Z,101118.38
2022-10-05T06:06:50.033Z,101114.78
2022-10-05T06:09:30.251Z,101111.63
2022-10-05T06:12:07.625Z,101130.31
2022-10-05T06:14:49.981Z,101128.38
2022-10-05T06:17:28.813Z,101124.69
2022-10-05T06:20:05.793Z,101117.72
2022-10-05T06:22:44.312Z,101107.75
2022-10-05T06:25:29.902Z,101112.47
2022-10-05T06:28:11.329Z,101115.69
2022-10-05T06:30:54.205Z,101115.06
2022-10-05T06:33:45.049Z,101115.91
2022-10-05T06:36:28.262Z,101108.03
2022-10-05T06:39:33.425Z,101112.41
2022-10-05T06:42:56.480Z,101114.22
2022-10-05T06:45:48.281Z,101110.38
2022-10-05T06:48:30.170Z,101116.50
2022-10-05T06:51:10.598Z,101114.81
2022-10-05T06:53:49.936Z,101117.50
2022-10-05T06:56:45.676Z,101115.97
2022-10-05T06:59:26.521Z,101120.31
2022-10-05T07:02:18.405Z,101114.47
2022-10-05T07:05:49.761Z,101117.81
2022-10-05T07:08:29.506Z,101118.16
2022-10-05T07:11:15.562Z,101115.56
2022-10-05T07:14:18.662Z,101128.06
2022-10-05T07:17:15.594Z,101117.97
2022-10-05T07:19:56.945Z,101117.84
2022-10-05T07:23:05.644Z,101114.53
2022-10-05T07:25:43.969Z,101104.09
2022-10-05T07:28:20.640Z,101106.25
2022-10-05T07:31:00.062Z,101107.72
2022-10-05T07:33:37.265Z,101111.59
2022-10-05T07:36:38.117Z,101098.81
2022-10-05T07:39:18.350Z,101108.50
2022-10-05T07:41:57.240Z,101107.91
2022-10-05T07:44:36.231Z,101101.94
2022-10-05T07:47:16.856Z,101113.00
2022-10-05T07:49:59.793Z,101097.69
2022-10-05T07:52:38.216Z,101098.25
2022-10-05T07:55:21.403Z,101106.28
2022-10-05T07:58:13.280Z,101105.38
2022-10-05T08:01:02.119Z,101109.13
2022-10-05T08:03:52.417Z,101110.97
2022-10-05T08:06:39.518Z,101117.13
2022-10-05T08:09:28.269Z,101111.72
2022-10-05T08:12:17.117Z,101106.59
2022-10-05T08:14:54.379Z,101112.53
2022-10-05T08:17:39.912Z,101117.38
2022-10-05T08:20:34.310Z,101118.22
2022-10-05T08:23:14.666Z,101116.78
2022-10-05T08:25:57.431Z,101113.09
2022-10-05T08:28:32.177Z,101110.25
2022-10-05T08:31:15.018Z,101117.69
2022-10-05T08:33:58.736Z,101116.13
2022-10-05T08:36:54.062Z,101103.66
2022-10-05T08:39:28.350Z,101113.78
2022-10-05T08:42:38.278Z,101110.53
2022-10-05T08:46:02.096Z,101107.31
2022-10-05T08:49:24.358Z,101107.75
2022-10-05T08:52:29.527Z,101094.94
2022-10-05T08:55:45.202Z,101106.78
2022-10-05T08:59:29.805Z,101111.75
2022-10-05T09:02:21.012Z,101104.56
2022-10-05T09:05:12.083Z,101105.41
2022-10-05T09:08:25.236Z,101107.97
2022-10-05T09:11:05.024Z,101110.72
2022-10-05T09:14:36.171Z,101104.63
2022-10-05T09:17:40.494Z,101109.19
2022-10-05T09:20:32.535Z,101105.41
2022-10-05T09:23:13.926Z,101092.19
2022-10-05T09:26:01.151Z,101090.53
2022-10-05T09:28:55.965Z,101089.69
2022-10-05T09:32:01.525Z,101084.31
2022-10-05T09:34:59.205Z,101073.03
2022-10-05T09:37:57.858Z,101071.09
2022-10-05T09:41:25.158Z,101077.28
2022-10-05T09:45:04.544Z,101079.94
2022-10-05T09:48:27.393Z,101081.00
2022-10-05T09:51:53.750Z,101067.03
2022-10-05T09:55:08.742Z,101068.97
2022-10-05T09:58:40.929Z,101066.84
2022-10-05T10:01:37.607Z,101043.63
2022-10-05T10:04:41.266Z,101061.63
2022-10-05T10:07:55.816Z,101060.88
2022-10-05T10:11:17.606Z,101069.22
2022-10-05T10:14:39.650Z,101062.84
2022-10-05T10:17:33.964Z,101058.50
2022-10-05T10:20:40.040Z,101054.81
2022-10-05T10:24:08.297Z,101037.69
2022-10-05T10:27:05.914Z,101043.34
2022-10-05T10:30:19.069Z,101047.91
2022-10-05T10:33:54.953Z,101044.28
2022-10-05T10:36:47.728Z,101043.59
2022-10-05T10:39:34.809Z,101033.06
2022-10-05T10:42:38.770Z,101035.75
2022-10-05T10:45:45.686Z,101022.50
2022-10-05T10:48:55.463Z,101010.94
2022-10-05T10:51:54.451Z,101020.50
2022-10-05T10:55:00.172Z,101028.31
2022-10-05T10:57:50.740Z,101028.47
2022-10-05T11:00:42.259Z,101026.69
2022-10-05T11:04:01.410Z,101035.22
2022-10-05T11:07:05.664Z,101024.25
2022-10-05T11:10:15.756Z,101029.94
2022-10-05T11:13:26.469Z,101030.31
2022-10-05T11:16:44.399Z,101033.63
2022-10-05T11:20:05.249Z,101024.41
2022-10-05T11:22:56.053Z,101020.69
2022-10-05T11:26:06.139Z,101012.94
2022-10-05T11:29:12.478Z,101010.88
2022-10-05T11:32:20.136Z,101034.34
2022-10-05T11:35:24.904Z,101017.31
2022-10-05T11:38:23.154Z,101024.66
2022-10-05T11:41:45.464Z,101024.81
2022-10-05T11:45:14.038Z,101010.19
2022-10-05T11:48:01.920Z,101017.09
2022-10-05T11:50:52.977Z,101016.28
2022-10-05T11:53:30.457Z,101019.16
2022-10-05T11:56:15.613Z,101000.19
2022-10-05T11:58:57.644Z,101015.19
2022-10-05T12:01:39.334Z,101007.69
2022-10-05T12:04:21.542Z,101001.22
2022-10-05T12:07:14.002Z,100986.81
2022-10-05T12:10:17.563Z,101001.06
2022-10-05T12:13:06.192Z,100998.41
2022-10-05T12:15:47.430Z,101006.63
2022-10-05T12:18:42.695Z,100998.47
2022-10-05T12:21:23.263Z,100992.13
2022-10-05T12:24:00.171Z,100993.31
2022-10-05T12:27:00.140Z,100991.19
2022-10-05T12:29:39.526Z,100989.19
2022-10-05T12:32:17.942Z,100988.75
2022-10-05T12:35:01.834Z,100983.44
2022-10-05T12:37:47.985Z,100984.41
2022-10-05T12:40:28.111Z,100985.47
2022-10-05T12:43:11.891Z,100977.19
2022-10-05T12:46:10.355Z,100974.47
2022-10-05T12:49:19.285Z,100976.72
2022-10-05T12:51:58.593Z,100978.47
2022-10-05T12:54:46.503Z,100969.19
2022-10-05T12:57:28.383Z,100973.81
2022-10-05T13:00:07.372Z,100964.56
2022-10-05T13:02:45.398Z,100971.41
2022-10-05T13:05:28.034Z,100955.78
2022-10-05T13:08:26.070Z,100966.63
2022-10-05T13:11:12.718Z,100951.28
2022-10-05T13:13:57.224Z,100958.38
2022-10-05T13:16:39.677Z,100950.44
2022-10-05T13:19:29.289Z,100954.16
2022-10-05T13:22:27.090Z,100942.09
2022-10-05T13:25:19.883Z,100954.16
2022-10-05T13:28:00.650Z,100945.25
2022-10-05T13:30:30.434Z,100937.53
2022-10-05T13:33:08.255Z,100946.06
2022-10-05T13:35:47.364Z,100947.44
2022-10-05T13:38:36.471Z,100949.25
2022-10-05T13:41:18.932Z,100936.88
2022-10-05T13:44:01.297Z,100943.25
2022-10-05T13:46:39.228Z,100946.94
2022-10-05T13:49:26.546Z,100945.81
2022-10-05T13:52:08.840Z,100950.09
2022-10-05T13:54:47.800Z,100965.53
2022-10-05T13:57:36.351Z,100946.25
2022-10-05T14:00:16.679Z,100946.50
2022-10-05T14:02:50.957Z,100951.00
2022-10-05T14:05:24.580Z,100940.94
2022-10-05T14:07:58.604Z,100952.59
2022-10-05T14:10:39.834Z,100948.53
2022-10-05T14:13:26.652Z,100955.81
2022-10-05T14:16:16.238Z,100944.34
2022-10-05T14:18:59.475Z,100938.09
2022-10-05T14:21:33.350Z,100937.88
2022-10-05T14:24:43.159Z,100943.84
2022-10-05T14:27:29.376Z,100925.78
2022-10-05T14:30:02.331Z,100927.06
2022-10-05T14:32:34.834Z,100923.00
2022-10-05T14:35:18.652Z,100930.94
2022-10-05T14:37:57.397Z,100928.31
2022-10-05T14:40:37.993Z,100934.81
2022-10-05T14:43:21.774Z,100936.97
2022-10-05T14:45:59.665Z,100925.97
2022-10-05T14:48:30.721Z,100937.69
2022-10-05T14:51:03.904Z,100928.13
2022-10-05T14:53:47.410Z,100939.53
2022-10-05T14:56:45.171Z,100940.09
2022-10-05T14:59:49.537Z,100934.69
2022-10-05T15:02:52.684Z,100928.91
2022-10-05T15:05:31.566Z,100931.63
2022-10-05T15:08:21.323Z,100935.41
2022-10-05T15:11:01.695Z,100933.16
2022-10-05T15:13:35.469Z,100933.75
2022-10-05T15:16:18.652Z,100927.81
2022-10-05T15:18:59.079Z,100937.84
2022-10-05T15:21:54.636Z,100933.13
2022-10-05T15:24:28.245Z,100937.81
2022-10-05T15:27:02.760Z,100933.06
2022-10-05T15:29:58.393Z,100934.88
2022-10-05T15:32:47.847Z,100929.31
2022-10-05T15:35:55.539Z,100934.94
2022-10-05T15:38:28.170Z,100927.03
2022-10-05T15:41:09.508Z,100932.81
2022-10-05T15:44:00.627Z,100919.88
2022-10-05T15:46:41.351Z,100919.88
2022-10-05T15:49:30.715Z,100913.88
2022-10-05T15:52:17.734Z,100920.59
2022-10-05T15:55:22.322Z,100916.72
2022-10-05T15:58:24.591Z,100917.91
2022-10-05T16:01:06.600Z,100914.66
2022-10-05T16:04:02.692Z,100914.66
2022-10-05T16:07:01.125Z,100906.28
2022-10-05T16:09:44.376Z,100915.19
2022-10-05T16:12:27.683Z,100901.19
2022-10-05T16:15:19.247Z,100903.28
2022-10-05T16:18:44.023Z,100909.03
2022-10-05T16:21:28.106Z,100900.50
2022-10-05T16:24:19.374Z,100904.66
2022-10-05T16:26:59.830Z,100909.22
2022-10-05T16:29:48.320Z,100902.25
2022-10-05T16:32:23.848Z,100903.09
2022-10-05T16:35:11.013Z,100903.59
2022-10-05T16:37:54.410Z,100902.00
2022-10-05T16:40:39.508Z,100902.63
2022-10-05T16:43:29.160Z,100896.50
2022-10-05T16:46:13.601Z,100894.84
2022-10-05T16:48:56.392Z,100898.16
2022-10-05T16:51:43.273Z,100904.25
2022-10-05T16:54:20.973Z,100909.97
2022-10-05T16:56:56.062Z,100905.88
2022-10-05T17:00:13.487Z,100906.56
2022-10-05T17:03:27.533Z,100902.16
2022-10-05T17:06:27.434Z,100906.47
2022-10-05T17:09:31.600Z,100911.88
2022-10-05T17:12:21.514Z,100921.56
2022-10-05T17:15:13.422Z,100916.69
2022-10-05T17:18:12.827Z,100924.97
2022-10-05T17:20:51.768Z,100922.72
2022-10-05T17:23:39.933Z,100919.94
2022-10-05T17:26:55.534Z,100928.44
2022-10-05T17:29:47.760Z,100929.59
2022-10-05T17:32:56.591Z,100931.38
2022-10-05T17:35:52.063Z,100924.03
2022-10-05T17:38:24.759Z,100934.13
2022-10-05T17:41:18.391Z,100935.16
2022-10-05T17:44:26.410Z,100936.41
2022-10-05T17:46:58.698Z,100936.66
2022-10-05T17:50:16.286Z,100943.47
2022-10-05T17:53:40.606Z,100951.19
2022-10-05T17:56:10.713Z,100945.38
2022-10-05T17:59:06.912Z,100957.88
2022-10-05T18:01:41.878Z,100952.34
2022-10-05T18:04:42.548Z,100962.31
2022-10-05T18:07:30.224Z,100957.28
2022-10-05T18:10:17.526Z,100949.16
2022-10-05T18:12:52.566Z,100949.03
2022-10-05T18:15:50.533Z,100956.28
2022-10-05T18:18:59.724Z,100951.00
2022-10-05T18:21:40.521Z,100950.47
2022-10-05T18:24:56.215Z,100942.38
2022-10-05T18:28:00.520Z,100941.50
2022-10-05T18:30:41.277Z,100937.28
2022-10-05T18:33:54.749Z,100934.94
2022-10-05T18:36:48.310Z,100941.50
2022-10-05T18:39:42.440Z,100936.34
2022-10-05T18:42:27.439Z,100933.25
2022-10-05T18:45:09.380Z,100937.66
2022-10-05T18:47:48.708Z,100928.38
2022-10-05T18:50:30.884Z,100932.94
2022-10-05T18:53:25.536Z,100929.22
2022-10-05T18:56:03.777Z,100918.25
2022-10-05T18:58:54.499Z,100921.81
2022-10-05T19:01:51.628Z,100925.66
2022-10-05T19:04:38.661Z,100921.41
2022-10-05T19:07:27.110Z,100914.41
2022-10-05T19:10:16.135Z,100911.59
2022-10-05T19:13:07.875Z,100910.34
2022-10-05T19:15:50.313Z,100912.91
2022-10-05T19:18:44.987Z,100911.97
2022-10-05T19:21:29.781Z,100902.88
2022-10-05T19:24:32.979Z,100906.31
2022-10-05T19:27:18.244Z,100910.56
2022-10-05T19:30:11.817Z,100910.00
2022-10-05T19:33:09.487Z,100893.78
2022-10-05T19:36:02.465Z,100893.63
2022-10-05T19:38:44.440Z,100892.88
2022-10-05T19:41:25.297Z,100895.19
2022-10-05T19:44:18.493Z,100892.78
2022-10-05T19:47:01.100Z,100887.81
2022-10-05T19:49:45.028Z,100884.97
2022-10-05T19:52:26.635Z,100874.72
2022-10-05T19:55:13.244Z,100882.41
2022-10-05T19:57:49.300Z,100890.59
2022-10-05T20:00:29.779Z,100884.03
2022-10-05T20:03:21.150Z,100881.84
2022-10-05T20:05:53.374Z,100881.56
2022-10-05T20:08:27.383Z,100879.34
2022-10-05T20:11:13.004Z,100883.06
2022-10-05T20:13:47.727Z,100882.44
2022-10-05T20:16:52.643Z,100879.34
2022-10-05T20:19:57.866Z,100873.41
2022-10-05T20:22:46.591Z,100876.53
2022-10-05T20:25:32.395Z,100873.75
2022-10-05T20:28:03.152Z,100878.56
2022-10-05T20:30:34.833Z,100876.75
2022-10-05T20:33:12.082Z,100882.72
2022-10-05T20:35:45.442Z,100869.28
2022-10-05T20:38:14.135Z,100867.09
2022-10-05T20:40:46.916Z,100879.50
2022-10-05T20:43:16.053Z,100876.09
2022-10-05T20:45:44.912Z,100866.69
2022-10-05T20:48:16.670Z,100867.09
2022-10-05T20:50:45.527Z,100884.78
2022-10-05T20:53:14.411Z,100877.53
2022-10-05T20:55:46.284Z,100890.06
2022-10-05T20:58:15.939Z,100887.75
2022-10-05T21:01:02.134Z,100901.22
2022-10-05T21:03:32.295Z,100889.97
2022-10-05T21:06:00.862Z,100904.84
2022-10-05T21:08:30.105Z,100895.69
2022-10-05T21:10:59.115Z,100898.53
2022-10-05T21:13:27.856Z,100896.16
2022-10-05T21:15:56.912Z,100902.28
2022-10-05T21:18:26.175Z,100887.72
2022-10-05T21:21:01.989Z,100896.69
2022-10-05T21:23:32.714Z,100893.19
2022-10-05T21:26:04.953Z,100892.91
2022-10-05T21:28:36.437Z,100895.84
2022-10-05T21:31:05.949Z,100896.69
2022-10-05T21:33:38.050Z,100895.97
2022-10-05T21:36:08.498Z,100895.47
2022-10-05T21:38:37.360Z,100897.84
2022-10-05T21:41:06.403Z,100899.22
2022-10-05T21:43:35.488Z,100894.13
2022-10-05T21:46:07.998Z,100907.94
2022-10-05T21:48:41.309Z,100899.41
2022-10-05T21:51:16.691Z,100878.66
2022-10-05T21:53:52.038Z,100893.50
2022-10-05T21:56:25.622Z,100887.00
2022-10-05T21:58:54.631Z,100891.28
2022-10-05T22:01:23.717Z,100882.59
2022-10-05T22:03:52.524Z,100882.31
2022-10-05T22:06:23.256Z,100884.53
2022-10-05T22:08:52.197Z,100888.47
2022-10-05T22:11:21.161Z,100884.75
2022-10-05T22:13:54.577Z,100892.88
2022-10-05T22:16:27.206Z,100891.41
2022-10-05T22:18:55.960Z,100891.09
2022-10-05T22:21:26.232Z,100898.06
2022-10-05T22:23:54.921Z,100887.00
2022-10-05T22:26:26.245Z,100893.97
2022-10-05T22:28:56.992Z,100894.97
2022-10-05T22:31:26.205Z,100899.06
2022-10-05T22:33:58.150Z,100905.88
2022-10-05T22:36:28.947Z,100898.78
2022-10-05T22:38:57.976Z,100897.91
2022-10-05T22:41:26.939Z,100904.09
2022-10-05T22:43:57.194Z,100900.94
2022-10-05T22:46:25.949Z,100905.97
2022-10-05T22:48:56.870Z,100914.06
2022-10-05T22:51:27.456Z,100915.00
2022-10-05T22:53:57.032Z,100924.50
2022-10-05T22:56:26.026Z,100920.88
2022-10-05T22:58:54.841Z,100920.06
2022-10-05T23:01:23.711Z,100912.03
2022-10-05T23:03:52.365Z,100918.16
2022-10-05T23:06:22.512Z,100913.25
2022-10-05T23:08:52.705Z,100930.34
2022-10-05T23:11:25.888Z,100921.47
2022-10-05T23:13:57.106Z,100929.13
2022-10-05T23:16:29.271Z,100932.00
2022-10-05T23:18:58.519Z,100925.72
2022-10-05T23:21:30.887Z,100925.72
2022-10-05T23:24:04.029Z,100939.09
2022-10-05T23:26:33.844Z,100940.03
2022-10-05T23:29:03.255Z,100951.41
2022-10-05T23:31:33.696Z,100953.91
2022-10-05T23:34:05.159Z,100938.03
2022-10-05T23:36:34.274Z,100946.59
2022-10-05T23:39:05.046Z,100956.91
2022-10-05T23:41:36.451Z,100957.28
2022-10-05T23:44:05.467Z,100956.81
2022-10-05T23:46:34.291Z,100963.81
2022-10-05T23:49:03.221Z,100974.50
2022-10-05T23:51:32.125Z,100967.88
2022-10-05T23:54:00.902Z,100978.66
2022-10-05T23:56:31.608Z,100978.09
2022-10-05T23:59:00.333Z,100987.47
